Th4 — LI3229 — position and weather

sailwx.info

Track history (hours):
 
Tides and Currents Weather Stations Pressure Air Temp Water Temp Dewpoint Dewpoint Depression Visibility Wind Speed Wind Dir Waves Ship Positions

Th4

Last reported at 2017-Sep-28 07:03 UTC. Time now 2017-Nov-23 07:39 UTC.
Position N 70°15' E 019°30'.
Warning: this ship's position is 56 days out of date.

Length 7 m.

Type: Fishing. MMSI: 258087530.

Date/timePositionNaut miles runAvg speedWind from/ knotsBaromVisibWave heightAir tempDewpointWater temp
2017-Sep-28 07:03N 70°15' E 019°30'0 0.0
2017-Sep-28 06:55N 70°15' E 019°30'0 0.0
2017-Sep-28 06:30N 70°15' E 019°30'0 0.0
2017-Sep-28 05:56N 70°15' E 019°30'0 0.0
2017-Sep-27 13:34N 70°15' E 019°30'0 0.0
2017-Sep-26 16:54N 70°15' E 019°30'0 0.1
2017-Sep-26 15:12N 70°15' E 019°30'1 3.9
2017-Sep-26 15:00N 70°15' E 019°28'510.9
2017-Sep-26 14:30N 70°18' E 019°15'1 1.2
2017-Sep-26 13:59N 70°18' E 019°13'1 1.3
2017-Sep-26 13:30N 70°18' E 019°11'2 3.5
2017-Sep-26 13:00N 70°18' E 019°06'0 0.7
2017-Sep-26 12:30N 70°18' E 019°05'0 0.2
2017-Sep-26 11:59N 70°18' E 019°05'0 0.2
2017-Sep-26 11:30N 70°18' E 019°05'2 3.8
2017-Sep-26 10:59N 70°16' E 019°05'0 0.3
2017-Sep-26 10:28N 70°16' E 019°05'3 5.8
2017-Sep-26 10:00N 70°19' E 019°04'0 0.4
2017-Sep-26 09:30N 70°19' E 019°05'1 1.2
2017-Sep-26 09:00N 70°19' E 019°03'0 0.5
2017-Sep-26 08:30N 70°19' E 019°04'0 0.4
2017-Sep-26 08:00N 70°19' E 019°04'0 0.4
2017-Sep-26 07:30N 70°19' E 019°05'0 0.7
2017-Sep-26 06:59N 70°19' E 019°06'1 1.6
2017-Sep-26 06:30N 70°18' E 019°05'0 0.3
2017-Sep-26 06:00N 70°18' E 019°05'510.3
2017-Sep-26 05:30N 70°17' E 019°20'4 0.3
2017-Sep-25 17:38N 70°15' E 019°30'0 0.7
2017-Sep-25 17:29N 70°15' E 019°30'0 0.1
2017-Sep-25 16:09N 70°15' E 019°30'0 0.0
2017-Sep-25 16:00N 70°15' E 019°30'613.1
2017-Sep-25 15:30N 70°18' E 019°15'0 0.1
2017-Sep-25 15:00N 70°18' E 019°15'2 3.5
2017-Sep-25 14:31N 70°19' E 019°10'1 2.6
2017-Sep-25 13:59N 70°19' E 019°05'0 0.3
2017-Sep-25 13:29N 70°19' E 019°05'0 0.5
2017-Sep-25 12:59N 70°19' E 019°06'0 0.2
2017-Sep-25 12:29N 70°19' E 019°06'0 0.3
2017-Sep-25 12:00N 70°19' E 019°05'0 0.3
2017-Sep-25 11:29N 70°19' E 019°05'1 1.2
2017-Sep-25 11:00N 70°19' E 019°06'0 0.6
2017-Sep-25 10:30N 70°19' E 019°06'1 1.2
2017-Sep-25 10:00N 70°19' E 019°08'1 1.1
2017-Sep-25 09:30N 70°19' E 019°07'1 2.2
2017-Sep-25 09:00N 70°18' E 019°04'0 0.5
2017-Sep-25 08:30N 70°18' E 019°05'1 1.5
2017-Sep-25 08:00N 70°19' E 019°05'0 0.6
2017-Sep-25 07:30N 70°19' E 019°05'0 0.5
2017-Sep-25 07:00N 70°19' E 019°05'0 0.7
2017-Sep-25 06:29N 70°18' E 019°05'0 0.7
2017-Sep-25 05:59N 70°19' E 019°04'0 0.1
2017-Sep-25 05:29N 70°19' E 019°04'510.7
2017-Sep-25 05:00N 70°17' E 019°19'4 0.4
2017-Sep-24 17:38N 70°15' E 019°30'0 0.6
2017-Sep-24 17:30N 70°15' E 019°30'0 0.2
2017-Sep-24 16:54N 70°15' E 019°30'2 3.7
2017-Sep-24 16:27N 70°16' E 019°31'2 4.6
2017-Sep-24 15:59N 70°17' E 019°37'0 0.2
2017-Sep-24 15:28N 70°17' E 019°37'1 1.2
2017-Sep-24 15:00N 70°18' E 019°37'0 0.2
2017-Sep-24 14:29N 70°18' E 019°37'0 0.7
2017-Sep-24 14:00N 70°18' E 019°38'2 4.7
2017-Sep-24 13:30N 70°17' E 019°44'1 2.2
2017-Sep-24 13:00N 70°17' E 019°47'1 1.8
2017-Sep-24 12:30N 70°16' E 019°49'2 3.0
2017-Sep-24 11:59N 70°15' E 019°52'0 0.4
2017-Sep-24 11:30N 70°15' E 019°53'3 6.2
2017-Sep-24 11:00N 70°17' E 019°44'0 0.1
2017-Sep-24 09:51N 70°17' E 019°44'0 0.4
2017-Sep-24 09:30N 70°17' E 019°45'1 2.8
2017-Sep-24 08:58N 70°18' E 019°48'0 0.6
2017-Sep-24 08:30N 70°17' E 019°49'0 0.6
2017-Sep-24 08:00N 70°17' E 019°49'0 0.6
2017-Sep-24 07:30N 70°17' E 019°49'2 3.3
2017-Sep-24 06:59N 70°17' E 019°44'1 1.3
2017-Sep-24 06:29N 70°17' E 019°45'1 1.2
2017-Sep-24 06:00N 70°17' E 019°44'0 0.3
2017-Sep-24 05:30N 70°17' E 019°44'0 0.4
2017-Sep-24 04:59N 70°17' E 019°44'610.1
2017-Sep-24 04:26N 70°14' E 019°29'  
2017-Sep-21 20:25N 70°15' E 019°30'0 0.0
2017-Sep-21 17:03N 70°15' E 019°30'0 1.0
2017-Sep-21 16:57N 70°15' E 019°30'4 9.3
2017-Sep-21 16:29N 70°18' E 019°37'1 1.2
2017-Sep-21 16:00N 70°18' E 019°38'1 1.0
2017-Sep-21 15:15N 70°18' E 019°40'0 1.6
2017-Sep-21 14:58N 70°18' E 019°42'0 0.5
2017-Sep-21 14:30N 70°18' E 019°42'1 1.7
2017-Sep-21 14:00N 70°17' E 019°44'1 1.2
2017-Sep-21 13:30N 70°17' E 019°45'0 0.4
2017-Sep-21 12:59N 70°17' E 019°45'0 0.3
2017-Sep-21 12:29N 70°17' E 019°45'0 0.4
2017-Sep-21 12:00N 70°17' E 019°44'0 0.4
2017-Sep-21 11:30N 70°17' E 019°44'0 0.8
2017-Sep-21 11:00N 70°17' E 019°46'4 7.9
2017-Sep-21 10:30N 70°17' E 019°34'3 4.8
2017-Sep-21 09:55N 70°15' E 019°30'3 7.1
2017-Sep-21 09:28N 70°17' E 019°36'4 7.7
2017-Sep-21 09:00N 70°17' E 019°46'0 0.6
2017-Sep-21 08:30N 70°17' E 019°45'1 2.0
2017-Sep-21 08:00N 70°17' E 019°43'510.1
2017-Sep-21 07:28N 70°15' E 019°28'  
2017-Sep-18 10:41N 70°15' E 019°30'  
Track history (hours):
 
Tides and Currents Weather Stations Pressure Air Temp Water Temp Dewpoint Dewpoint Depression Visibility Wind Speed Wind Dir Waves Ship Positions

Th4

Last reported at 2017-Sep-28 07:03 UTC. Time now 2017-Nov-23 07:39 UTC.
Position N 70°15' E 019°30'.
Warning: this ship's position is 56 days out of date.

Length 7 m.

Type: Fishing. MMSI: 258087530.

Date/timePositionNaut miles runAvg speedWind from/ knotsBaromVisibWave heightAir tempDewpointWater temp
2017-Sep-28 07:03N 70°15' E 019°30'0 0.0
2017-Sep-28 06:55N 70°15' E 019°30'0 0.0
2017-Sep-28 06:30N 70°15' E 019°30'0 0.0
2017-Sep-28 05:56N 70°15' E 019°30'0 0.0
2017-Sep-27 13:34N 70°15' E 019°30'0 0.0
2017-Sep-26 16:54N 70°15' E 019°30'0 0.1
2017-Sep-26 15:12N 70°15' E 019°30'1 3.9
2017-Sep-26 15:00N 70°15' E 019°28'510.9
2017-Sep-26 14:30N 70°18' E 019°15'1 1.2
2017-Sep-26 13:59N 70°18' E 019°13'1 1.3
2017-Sep-26 13:30N 70°18' E 019°11'2 3.5
2017-Sep-26 13:00N 70°18' E 019°06'0 0.7
2017-Sep-26 12:30N 70°18' E 019°05'0 0.2
2017-Sep-26 11:59N 70°18' E 019°05'0 0.2
2017-Sep-26 11:30N 70°18' E 019°05'2 3.8
2017-Sep-26 10:59N 70°16' E 019°05'0 0.3
2017-Sep-26 10:28N 70°16' E 019°05'3 5.8
2017-Sep-26 10:00N 70°19' E 019°04'0 0.4
2017-Sep-26 09:30N 70°19' E 019°05'1 1.2
2017-Sep-26 09:00N 70°19' E 019°03'0 0.5
2017-Sep-26 08:30N 70°19' E 019°04'0 0.4
2017-Sep-26 08:00N 70°19' E 019°04'0 0.4
2017-Sep-26 07:30N 70°19' E 019°05'0 0.7
2017-Sep-26 06:59N 70°19' E 019°06'1 1.6
2017-Sep-26 06:30N 70°18' E 019°05'0 0.3
2017-Sep-26 06:00N 70°18' E 019°05'510.3
2017-Sep-26 05:30N 70°17' E 019°20'4 0.3
2017-Sep-25 17:38N 70°15' E 019°30'0 0.7
2017-Sep-25 17:29N 70°15' E 019°30'0 0.1
2017-Sep-25 16:09N 70°15' E 019°30'0 0.0
2017-Sep-25 16:00N 70°15' E 019°30'613.1
2017-Sep-25 15:30N 70°18' E 019°15'0 0.1
2017-Sep-25 15:00N 70°18' E 019°15'2 3.5
2017-Sep-25 14:31N 70°19' E 019°10'1 2.6
2017-Sep-25 13:59N 70°19' E 019°05'0 0.3
2017-Sep-25 13:29N 70°19' E 019°05'0 0.5
2017-Sep-25 12:59N 70°19' E 019°06'0 0.2
2017-Sep-25 12:29N 70°19' E 019°06'0 0.3
2017-Sep-25 12:00N 70°19' E 019°05'0 0.3
2017-Sep-25 11:29N 70°19' E 019°05'1 1.2
2017-Sep-25 11:00N 70°19' E 019°06'0 0.6
2017-Sep-25 10:30N 70°19' E 019°06'1 1.2
2017-Sep-25 10:00N 70°19' E 019°08'1 1.1
2017-Sep-25 09:30N 70°19' E 019°07'1 2.2
2017-Sep-25 09:00N 70°18' E 019°04'0 0.5
2017-Sep-25 08:30N 70°18' E 019°05'1 1.5
2017-Sep-25 08:00N 70°19' E 019°05'0 0.6
2017-Sep-25 07:30N 70°19' E 019°05'0 0.5
2017-Sep-25 07:00N 70°19' E 019°05'0 0.7
2017-Sep-25 06:29N 70°18' E 019°05'0 0.7
2017-Sep-25 05:59N 70°19' E 019°04'0 0.1
2017-Sep-25 05:29N 70°19' E 019°04'510.7
2017-Sep-25 05:00N 70°17' E 019°19'4 0.4
2017-Sep-24 17:38N 70°15' E 019°30'0 0.6
2017-Sep-24 17:30N 70°15' E 019°30'0 0.2
2017-Sep-24 16:54N 70°15' E 019°30'2 3.7
2017-Sep-24 16:27N 70°16' E 019°31'2 4.6
2017-Sep-24 15:59N 70°17' E 019°37'0 0.2
2017-Sep-24 15:28N 70°17' E 019°37'1 1.2
2017-Sep-24 15:00N 70°18' E 019°37'0 0.2
2017-Sep-24 14:29N 70°18' E 019°37'0 0.7
2017-Sep-24 14:00N 70°18' E 019°38'2 4.7
2017-Sep-24 13:30N 70°17' E 019°44'1 2.2
2017-Sep-24 13:00N 70°17' E 019°47'1 1.8
2017-Sep-24 12:30N 70°16' E 019°49'2 3.0
2017-Sep-24 11:59N 70°15' E 019°52'0 0.4
2017-Sep-24 11:30N 70°15' E 019°53'3 6.2
2017-Sep-24 11:00N 70°17' E 019°44'0 0.1
2017-Sep-24 09:51N 70°17' E 019°44'0 0.4
2017-Sep-24 09:30N 70°17' E 019°45'1 2.8
2017-Sep-24 08:58N 70°18' E 019°48'0 0.6
2017-Sep-24 08:30N 70°17' E 019°49'0 0.6
2017-Sep-24 08:00N 70°17' E 019°49'0 0.6
2017-Sep-24 07:30N 70°17' E 019°49'2 3.3
2017-Sep-24 06:59N 70°17' E 019°44'1 1.3
2017-Sep-24 06:29N 70°17' E 019°45'1 1.2
2017-Sep-24 06:00N 70°17' E 019°44'0 0.3
2017-Sep-24 05:30N 70°17' E 019°44'0 0.4
2017-Sep-24 04:59N 70°17' E 019°44'610.1
2017-Sep-24 04:26N 70°14' E 019°29'  
2017-Sep-21 20:25N 70°15' E 019°30'0 0.0
2017-Sep-21 17:03N 70°15' E 019°30'0 1.0
2017-Sep-21 16:57N 70°15' E 019°30'4 9.3
2017-Sep-21 16:29N 70°18' E 019°37'1 1.2
2017-Sep-21 16:00N 70°18' E 019°38'1 1.0
2017-Sep-21 15:15N 70°18' E 019°40'0 1.6
2017-Sep-21 14:58N 70°18' E 019°42'0 0.5
2017-Sep-21 14:30N 70°18' E 019°42'1 1.7
2017-Sep-21 14:00N 70°17' E 019°44'1 1.2
2017-Sep-21 13:30N 70°17' E 019°45'0 0.4
2017-Sep-21 12:59N 70°17' E 019°45'0 0.3
2017-Sep-21 12:29N 70°17' E 019°45'0 0.4
2017-Sep-21 12:00N 70°17' E 019°44'0 0.4
2017-Sep-21 11:30N 70°17' E 019°44'0 0.8
2017-Sep-21 11:00N 70°17' E 019°46'4 7.9
2017-Sep-21 10:30N 70°17' E 019°34'3 4.8
2017-Sep-21 09:55N 70°15' E 019°30'3 7.1
2017-Sep-21 09:28N 70°17' E 019°36'4 7.7
2017-Sep-21 09:00N 70°17' E 019°46'0 0.6
2017-Sep-21 08:30N 70°17' E 019°45'1 2.0
2017-Sep-21 08:00N 70°17' E 019°43'510.1
2017-Sep-21 07:28N 70°15' E 019°28'  
2017-Sep-18 10:41N 70°15' E 019°30'  

Dump ship's entire track history